sensor_id;sensor_type;location;lat;lon;timestamp;pressure;altitude;pressure_sealevel;temperature;humidity
72721;BME280;60835;50.974;10.322;2022-07-12T00:00:09;98892.81;;;15.05;100.00
72721;BME280;60835;50.974;10.322;2022-07-12T00:02:36;98850.81;;;14.69;100.00
72721;BME280;60835;50.974;10.322;2022-07-12T00:05:03;98894.03;;;14.95;100.00
72721;BME280;60835;50.974;10.322;2022-07-12T00:07:30;98882.41;;;14.88;100.00
72721;BME280;60835;50.974;10.322;2022-07-12T00:09:56;98896.00;;;15.09;100.00
72721;BME280;60835;50.974;10.322;2022-07-12T00:12:23;98876.84;;;14.97;100.00
72721;BME280;60835;50.974;10.322;2022-07-12T00:14:49;98895.63;;;15.04;100.00
72721;BME280;60835;50.974;10.322;2022-07-12T00:17:16;98895.31;;;14.99;100.00
72721;BME280;60835;50.974;10.322;2022-07-12T00:19:42;98904.84;;;14.85;100.00
72721;BME280;60835;50.974;10.322;2022-07-12T00:22:09;98898.22;;;14.81;100.00
72721;BME280;60835;50.974;10.322;2022-07-12T00:24:35;98899.38;;;14.79;100.00
72721;BME280;60835;50.974;10.322;2022-07-12T00:27:02;98894.69;;;14.89;100.00
72721;BME280;60835;50.974;10.322;2022-07-12T00:29:28;98884.25;;;14.79;100.00
72721;BME280;60835;50.974;10.322;2022-07-12T00:31:55;98894.56;;;14.82;100.00
72721;BME280;60835;50.974;10.322;2022-07-12T00:34:23;98879.28;;;14.60;100.00
72721;BME280;60835;50.974;10.322;2022-07-12T00:36:50;98889.72;;;14.70;100.00
72721;BME280;60835;50.974;10.322;2022-07-12T00:39:16;98889.06;;;14.76;100.00
72721;BME280;60835;50.974;10.322;2022-07-12T00:41:43;98885.41;;;14.77;100.00
72721;BME280;60835;50.974;10.322;2022-07-12T00:44:10;98885.44;;;14.60;100.00
72721;BME280;60835;50.974;10.322;2022-07-12T00:46:36;98866.81;;;14.52;100.00
72721;BME280;60835;50.974;10.322;2022-07-12T00:49:03;98888.75;;;14.62;100.00
72721;BME280;60835;50.974;10.322;2022-07-12T00:51:29;98892.78;;;14.58;100.00
72721;BME280;60835;50.974;10.322;2022-07-12T00:53:57;98890.91;;;14.51;100.00
72721;BME280;60835;50.974;10.322;2022-07-12T00:56:25;98875.09;;;14.25;100.00
72721;BME280;60835;50.974;10.322;2022-07-12T00:58:52;98861.16;;;14.23;100.00
72721;BME280;60835;50.974;10.322;2022-07-12T01:01:18;98879.47;;;14.34;100.00
72721;BME280;60835;50.974;10.322;2022-07-12T01:03:45;98870.13;;;14.30;100.00
72721;BME280;60835;50.974;10.322;2022-07-12T01:06:12;98869.47;;;14.28;100.00
72721;BME280;60835;50.974;10.322;2022-07-12T01:08:38;98853.81;;;14.17;100.00
72721;BME280;60835;50.974;10.322;2022-07-12T01:11:06;98874.78;;;14.28;100.00
72721;BME280;60835;50.974;10.322;2022-07-12T01:13:34;98863.94;;;14.22;100.00
72721;BME280;60835;50.974;10.322;2022-07-12T01:16:01;98877.75;;;14.17;100.00
72721;BME280;60835;50.974;10.322;2022-07-12T01:18:27;98873.47;;;14.24;100.00
72721;BME280;60835;50.974;10.322;2022-07-12T01:20:54;98869.16;;;14.31;100.00
72721;BME280;60835;50.974;10.322;2022-07-12T01:23:24;98872.47;;;14.33;100.00
72721;BME280;60835;50.974;10.322;2022-07-12T01:25:51;98878.78;;;14.24;100.00
72721;BME280;60835;50.974;10.322;2022-07-12T01:28:18;98871.78;;;14.23;100.00
72721;BME280;60835;50.974;10.322;2022-07-12T01:30:44;98869.47;;;14.28;100.00
72721;BME280;60835;50.974;10.322;2022-07-12T01:33:11;98875.44;;;14.22;100.00
72721;BME280;60835;50.974;10.322;2022-07-12T01:35:39;98873.47;;;14.40;100.00
72721;BME280;60835;50.974;10.322;2022-07-12T01:38:06;98860.50;;;14.45;100.00
72721;BME280;60835;50.974;10.322;2022-07-12T01:40:32;98869.28;;;14.54;100.00
72721;BME280;60835;50.974;10.322;2022-07-12T01:42:59;98863.81;;;14.47;100.00
72721;BME280;60835;50.974;10.322;2022-07-12T01:45:25;98877.47;;;14.44;100.00
72721;BME280;60835;50.974;10.322;2022-07-12T01:47:52;98850.66;;;14.46;100.00
72721;BME280;60835;50.974;10.322;2022-07-12T01:50:19;98861.81;;;14.41;100.00
72721;BME280;60835;50.974;10.322;2022-07-12T01:52:46;98869.78;;;14.57;100.00
72721;BME280;60835;50.974;10.322;2022-07-12T01:55:12;98815.06;;;14.15;100.00
72721;BME280;60835;50.974;10.322;2022-07-12T01:57:42;98862.47;;;14.43;100.00
72721;BME280;60835;50.974;10.322;2022-07-12T02:00:11;98863.63;;;14.25;100.00
72721;BME280;60835;50.974;10.322;2022-07-12T02:02:39;98861.78;;;14.01;100.00
72721;BME280;60835;50.974;10.322;2022-07-12T02:05:06;98872.28;;;14.11;100.00
72721;BME280;60835;50.974;10.322;2022-07-12T02:07:33;98859.81;;;14.03;100.00
72721;BME280;60835;50.974;10.322;2022-07-12T02:10:00;98868.47;;;14.05;100.00
72721;BME280;60835;50.974;10.322;2022-07-12T02:12:26;98867.81;;;14.03;100.00
72721;BME280;60835;50.974;10.322;2022-07-12T02:14:53;98862.47;;;13.95;100.00
72721;BME280;60835;50.974;10.322;2022-07-12T02:17:19;98862.47;;;13.95;100.00
72721;BME280;60835;50.974;10.322;2022-07-12T02:19:46;98837.84;;;13.85;100.00
72721;BME280;60835;50.974;10.322;2022-07-12T02:22:12;98862.81;;;14.08;100.00
72721;BME280;60835;50.974;10.322;2022-07-12T02:24:38;98851.34;;;14.08;100.00
72721;BME280;60835;50.974;10.322;2022-07-12T02:27:05;98869.97;;;14.16;100.00
72721;BME280;60835;50.974;10.322;2022-07-12T02:29:32;98825.56;;;13.92;100.00
72721;BME280;60835;50.974;10.322;2022-07-12T02:32:00;98856.31;;;14.19;100.00
72721;BME280;60835;50.974;10.322;2022-07-12T02:34:26;98838.19;;;13.98;100.00
72721;BME280;60835;50.974;10.322;2022-07-12T02:36:53;98843.88;;;14.03;100.00
72721;BME280;60835;50.974;10.322;2022-07-12T02:39:19;98855.50;;;14.10;100.00
72721;BME280;60835;50.974;10.322;2022-07-12T02:41:46;98851.00;;;14.11;100.00
72721;BME280;60835;50.974;10.322;2022-07-12T02:44:13;98840.19;;;14.04;100.00
72721;BME280;60835;50.974;10.322;2022-07-12T02:46:39;98848.66;;;13.99;100.00
72721;BME280;60835;50.974;10.322;2022-07-12T02:49:06;98845.19;;;13.99;100.00
72721;BME280;60835;50.974;10.322;2022-07-12T02:51:32;98852.50;;;14.05;100.00
72721;BME280;60835;50.974;10.322;2022-07-12T02:53:59;98844.34;;;14.07;100.00
72721;BME280;60835;50.974;10.322;2022-07-12T02:56:26;98843.88;;;14.03;100.00
72721;BME280;60835;50.974;10.322;2022-07-12T02:58:53;98841.53;;;13.92;100.00
72721;BME280;60835;50.974;10.322;2022-07-12T03:01:19;98841.84;;;13.89;100.00
72721;BME280;60835;50.974;10.322;2022-07-12T03:03:46;98839.69;;;13.84;100.00
72721;BME280;60835;50.974;10.322;2022-07-12T03:06:12;98843.34;;;13.83;100.00
72721;BME280;60835;50.974;10.322;2022-07-12T03:08:39;98858.81;;;13.96;100.00
72721;BME280;60835;50.974;10.322;2022-07-12T03:11:06;98860.16;;;14.00;100.00
72721;BME280;60835;50.974;10.322;2022-07-12T03:13:34;98870.09;;;14.06;100.00
72721;BME280;60835;50.974;10.322;2022-07-12T03:16:03;98870.47;;;14.03;100.00
72721;BME280;60835;50.974;10.322;2022-07-12T03:18:31;98870.63;;;14.10;100.00
72721;BME280;60835;50.974;10.322;2022-07-12T03:20:58;98866.13;;;14.10;100.00
72721;BME280;60835;50.974;10.322;2022-07-12T03:23:24;98869.28;;;14.22;100.00
72721;BME280;60835;50.974;10.322;2022-07-12T03:25:50;98877.44;;;14.20;100.00
72721;BME280;60835;50.974;10.322;2022-07-12T03:28:17;98887.44;;;14.26;100.00
72721;BME280;60835;50.974;10.322;2022-07-12T03:30:44;98839.84;;;14.07;100.00
72721;BME280;60835;50.974;10.322;2022-07-12T03:33:12;98902.75;;;14.32;100.00
72721;BME280;60835;50.974;10.322;2022-07-12T03:35:39;98896.94;;;14.37;100.00
72721;BME280;60835;50.974;10.322;2022-07-12T03:38:06;98907.06;;;14.41;100.00
72721;BME280;60835;50.974;10.322;2022-07-12T03:40:33;98907.72;;;14.35;100.00
72721;BME280;60835;50.974;10.322;2022-07-12T03:43:02;98913.38;;;14.32;100.00
72721;BME280;60835;50.974;10.322;2022-07-12T03:45:29;98912.03;;;14.28;100.00
72721;BME280;60835;50.974;10.322;2022-07-12T03:47:55;98921.00;;;14.27;100.00
72721;BME280;60835;50.974;10.322;2022-07-12T03:50:22;98913.19;;;14.26;100.00
72721;BME280;60835;50.974;10.322;2022-07-12T03:52:48;98902.72;;;14.16;100.00
72721;BME280;60835;50.974;10.322;2022-07-12T03:55:16;98914.88;;;14.11;100.00
72721;BME280;60835;50.974;10.322;2022-07-12T03:57:42;98897.38;;;13.92;100.00
72721;BME280;60835;50.974;10.322;2022-07-12T04:00:10;98915.31;;;13.98;100.00
72721;BME280;60835;50.974;10.322;2022-07-12T04:02:39;98920.00;;;14.04;100.00
72721;BME280;60835;50.974;10.322;2022-07-12T04:05:07;98923.31;;;14.06;100.00
72721;BME280;60835;50.974;10.322;2022-07-12T04:07:34;98914.69;;;14.12;100.00
72721;BME280;60835;50.974;10.322;2022-07-12T04:10:01;98906.38;;;14.15;100.00
72721;BME280;60835;50.974;10.322;2022-07-12T04:12:28;98915.69;;;14.19;100.00
72721;BME280;60835;50.974;10.322;2022-07-12T04:14:55;98918.53;;;14.18;100.00
72721;BME280;60835;50.974;10.322;2022-07-12T04:17:21;98902.38;;;14.11;100.00
72721;BME280;60835;50.974;10.322;2022-07-12T04:19:48;98920.03;;;14.28;100.00
72721;BME280;60835;50.974;10.322;2022-07-12T04:22:14;98920.69;;;14.30;100.00
72721;BME280;60835;50.974;10.322;2022-07-12T04:24:41;98923.00;;;14.25;100.00
72721;BME280;60835;50.974;10.322;2022-07-12T04:27:11;98908.06;;;14.32;100.00
72721;BME280;60835;50.974;10.322;2022-07-12T04:29:38;98919.06;;;14.37;100.00
72721;BME280;60835;50.974;10.322;2022-07-12T04:32:05;98923.06;;;14.41;100.00
72721;BME280;60835;50.974;10.322;2022-07-12T04:34:32;98932.84;;;14.49;100.00
72721;BME280;60835;50.974;10.322;2022-07-12T04:36:59;98921.53;;;14.31;100.00
72721;BME280;60835;50.974;10.322;2022-07-12T04:39:26;98928.03;;;14.36;100.00
72721;BME280;60835;50.974;10.322;2022-07-12T04:41:52;98936.19;;;14.43;100.00
72721;BME280;60835;50.974;10.322;2022-07-12T04:44:19;98940.50;;;14.36;100.00
72721;BME280;60835;50.974;10.322;2022-07-12T04:46:45;98943.03;;;14.45;100.00
72721;BME280;60835;50.974;10.322;2022-07-12T04:49:12;98941.03;;;14.47;100.00
72721;BME280;60835;50.974;10.322;2022-07-12T04:51:38;98952.34;;;14.49;100.00
72721;BME280;60835;50.974;10.322;2022-07-12T04:54:05;98953.31;;;14.56;100.00
72721;BME280;60835;50.974;10.322;2022-07-12T04:56:32;98938.03;;;14.58;100.00
72721;BME280;60835;50.974;10.322;2022-07-12T04:58:58;98961.63;;;14.78;100.00
72721;BME280;60835;50.974;10.322;2022-07-12T05:01:29;98974.59;;;14.97;100.00
72721;BME280;60835;50.974;10.322;2022-07-12T05:03:56;98969.91;;;15.15;100.00
72721;BME280;60835;50.974;10.322;2022-07-12T05:06:22;98969.88;;;15.31;100.00
72721;BME280;60835;50.974;10.322;2022-07-12T05:08:49;98985.19;;;15.37;100.00
72721;BME280;60835;50.974;10.322;2022-07-12T05:11:15;98990.16;;;15.56;100.00
72721;BME280;60835;50.974;10.322;2022-07-12T05:13:42;98996.25;;;15.73;100.00
72721;BME280;60835;50.974;10.322;2022-07-12T05:16:08;98980.59;;;15.70;100.00
72721;BME280;60835;50.974;10.322;2022-07-12T05:18:35;99027.94;;;15.68;100.00
72721;BME280;60835;50.974;10.322;2022-07-12T05:21:02;99026.50;;;15.49;100.00
72721;BME280;60835;50.974;10.322;2022-07-12T05:23:29;99021.59;;;15.77;100.00
72721;BME280;60835;50.974;10.322;2022-07-12T05:25:56;99005.22;;;16.11;100.00
72721;BME280;60835;50.974;10.322;2022-07-12T05:28:23;99044.81;;;16.38;100.00
72721;BME280;60835;50.974;10.322;2022-07-12T05:30:49;99059.41;;;16.50;100.00
72721;BME280;60835;50.974;10.322;2022-07-12T05:33:16;99058.19;;;16.30;100.00
72721;BME280;60835;50.974;10.322;2022-07-12T05:35:42;99066.94;;;16.77;100.00
72721;BME280;60835;50.974;10.322;2022-07-12T05:38:09;99067.31;;;17.12;100.00
72721;BME280;60835;50.974;10.322;2022-07-12T05:40:35;99089.44;;;17.43;100.00
72721;BME280;60835;50.974;10.322;2022-07-12T05:43:02;99122.69;;;17.26;100.00
72721;BME280;60835;50.974;10.322;2022-07-12T05:45:28;99125.03;;;17.43;100.00
72721;BME280;60835;50.974;10.322;2022-07-12T05:47:55;99143.91;;;17.27;100.00
72721;BME280;60835;50.974;10.322;2022-07-12T05:50:21;99130.19;;;17.45;100.00
72721;BME280;60835;50.974;10.322;2022-07-12T05:52:48;99143.19;;;17.56;100.00
72721;BME280;60835;50.974;10.322;2022-07-12T05:55:33;99169.31;;;17.69;100.00
72721;BME280;60835;50.974;10.322;2022-07-12T05:58:00;99182.03;;;17.67;100.00
72721;BME280;60835;50.974;10.322;2022-07-12T06:00:26;99181.84;;;18.05;100.00
72721;BME280;60835;50.974;10.322;2022-07-12T06:02:53;99215.16;;;18.91;100.00
72721;BME280;60835;50.974;10.322;2022-07-12T06:05:20;99269.16;;;20.01;100.00
72721;BME280;60835;50.974;10.322;2022-07-12T06:07:47;99318.28;;;20.44;100.00
72721;BME280;60835;50.974;10.322;2022-07-12T06:10:13;99353.53;;;20.56;100.00
72721;BME280;60835;50.974;10.322;2022-07-12T06:12:40;99425.25;;;21.32;100.00
72721;BME280;60835;50.974;10.322;2022-07-12T06:15:06;99457.00;;;21.09;100.00
72721;BME280;60835;50.974;10.322;2022-07-12T06:17:34;99428.25;;;20.39;100.00
72721;BME280;60835;50.974;10.322;2022-07-12T06:20:02;99424.75;;;19.82;100.00
72721;BME280;60835;50.974;10.322;2022-07-12T06:22:29;99393.78;;;19.86;100.00
72721;BME280;60835;50.974;10.322;2022-07-12T06:24:56;99419.69;;;19.72;100.00
72721;BME280;60835;50.974;10.322;2022-07-12T06:27:22;99379.72;;;19.33;100.00
72721;BME280;60835;50.974;10.322;2022-07-12T06:29:49;99397.38;;;19.57;100.00
72721;BME280;60835;50.974;10.322;2022-07-12T06:32:17;99389.06;;;19.67;100.00
72721;BME280;60835;50.974;10.322;2022-07-12T06:34:44;99378.69;;;19.64;100.00
72721;BME280;60835;50.974;10.322;2022-07-12T06:37:10;99416.34;;;19.70;100.00
72721;BME280;60835;50.974;10.322;2022-07-12T06:39:39;99422.22;;;20.16;100.00
72721;BME280;60835;50.974;10.322;2022-07-12T06:42:05;99430.44;;;19.28;100.00
72721;BME280;60835;50.974;10.322;2022-07-12T06:44:32;99418.91;;;19.42;100.00
72721;BME280;60835;50.974;10.322;2022-07-12T06:46:59;99431.53;;;19.63;100.00
72721;BME280;60835;50.974;10.322;2022-07-12T06:49:26;99410.22;;;19.40;100.00
72721;BME280;60835;50.974;10.322;2022-07-12T06:51:52;99418.59;;;19.67;100.00
72721;BME280;60835;50.974;10.322;2022-07-12T06:54:19;99442.28;;;19.63;100.00
72721;BME280;60835;50.974;10.322;2022-07-12T06:56:45;99436.53;;;19.66;100.00
72721;BME280;60835;50.974;10.322;2022-07-12T06:59:12;99455.91;;;19.62;100.00
72721;BME280;60835;50.974;10.322;2022-07-12T07:01:42;99459.22;;;19.64;100.00
72721;BME280;60835;50.974;10.322;2022-07-12T07:04:08;99463.25;;;19.89;100.00
72721;BME280;60835;50.974;10.322;2022-07-12T07:06:35;99466.06;;;20.02;100.00
72721;BME280;60835;50.974;10.322;2022-07-12T07:09:01;99480.38;;;20.38;100.00
72721;BME280;60835;50.974;10.322;2022-07-12T07:11:31;99483.88;;;19.88;100.00
72721;BME280;60835;50.974;10.322;2022-07-12T07:13:57;99496.50;;;20.59;100.00
72721;BME280;60835;50.974;10.322;2022-07-12T07:16:24;99540.50;;;21.50;100.00
72721;BME280;60835;50.974;10.322;2022-07-12T07:18:51;99561.22;;;21.49;100.00
72721;BME280;60835;50.974;10.322;2022-07-12T07:21:17;99565.84;;;21.62;100.00
72721;BME280;60835;50.974;10.322;2022-07-12T07:23:44;99564.00;;;21.62;100.00
72721;BME280;60835;50.974;10.322;2022-07-12T07:26:10;99608.75;;;22.99;100.00
72721;BME280;60835;50.974;10.322;2022-07-12T07:28:37;99621.47;;;22.44;100.00
72721;BME280;60835;50.974;10.322;2022-07-12T07:31:23;99580.13;;;22.31;100.00
72721;BME280;60835;50.974;10.322;2022-07-12T07:33:51;99647.34;;;24.31;100.00
72721;BME280;60835;50.974;10.322;2022-07-12T07:36:18;99725.88;;;24.75;100.00
72721;BME280;60835;50.974;10.322;2022-07-12T07:38:44;99738.91;;;23.94;100.00
72721;BME280;60835;50.974;10.322;2022-07-12T07:41:11;99768.63;;;25.17;100.00
72721;BME280;60835;50.974;10.322;2022-07-12T07:43:41;99834.00;;;26.03;100.00
72721;BME280;60835;50.974;10.322;2022-07-12T07:46:07;99816.91;;;25.27;100.00
72721;BME280;60835;50.974;10.322;2022-07-12T07:48:34;99805.31;;;26.45;100.00
72721;BME280;60835;50.974;10.322;2022-07-12T07:51:00;99837.81;;;25.95;100.00
72721;BME280;60835;50.974;10.322;2022-07-12T07:53:33;99808.69;;;25.02;100.00
72721;BME280;60835;50.974;10.322;2022-07-12T07:56:00;99832.53;;;26.81;100.00
72721;BME280;60835;50.974;10.322;2022-07-12T07:58:29;99854.03;;;27.19;100.00
72721;BME280;60835;50.974;10.322;2022-07-12T08:00:56;99835.81;;;27.56;100.00
72721;BME280;60835;50.974;10.322;2022-07-12T08:03:23;99843.34;;;25.31;100.00
72721;BME280;60835;50.974;10.322;2022-07-12T08:05:51;99782.59;;;24.17;100.00
72721;BME280;60835;50.974;10.322;2022-07-12T08:08:18;99849.38;;;26.65;100.00
72721;BME280;60835;50.974;10.322;2022-07-12T08:10:45;99832.59;;;27.47;100.00
72721;BME280;60835;50.974;10.322;2022-07-12T08:13:11;99865.50;;;26.35;100.00
72721;BME280;60835;50.974;10.322;2022-07-12T08:15:38;99852.75;;;27.40;100.00
72721;BME280;60835;50.974;10.322;2022-07-12T08:18:04;99861.00;;;27.93;100.00
72721;BME280;60835;50.974;10.322;2022-07-12T08:20:32;99864.63;;;28.69;100.00
72721;BME280;60835;50.974;10.322;2022-07-12T08:23:14;99865.31;;;27.70;100.00
72721;BME280;60835;50.974;10.322;2022-07-12T08:25:41;99863.75;;;24.83;100.00
72721;BME280;60835;50.974;10.322;2022-07-12T08:28:08;99854.94;;;25.01;100.00
72721;BME280;60835;50.974;10.322;2022-07-12T08:30:34;99866.47;;;26.16;100.00
72721;BME280;60835;50.974;10.322;2022-07-12T08:33:08;99874.50;;;27.69;100.00
72721;BME280;60835;50.974;10.322;2022-07-12T08:35:34;99869.81;;;26.68;100.00
72721;BME280;60835;50.974;10.322;2022-07-12T08:38:01;99861.53;;;27.71;99.05
72721;BME280;60835;50.974;10.322;2022-07-12T08:40:28;99872.03;;;28.27;91.25
72721;BME280;60835;50.974;10.322;2022-07-12T08:42:57;99871.09;;;27.08;100.00
72721;BME280;60835;50.974;10.322;2022-07-12T08:45:23;99878.06;;;29.34;89.68
72721;BME280;60835;50.974;10.322;2022-07-12T08:47:50;99867.09;;;27.29;100.00
72721;BME280;60835;50.974;10.322;2022-07-12T08:50:19;99870.78;;;27.34;98.93
72721;BME280;60835;50.974;10.322;2022-07-12T08:52:47;99868.66;;;28.67;97.81
72721;BME280;60835;50.974;10.322;2022-07-12T08:55:21;99876.91;;;29.30;89.39
72721;BME280;60835;50.974;10.322;2022-07-12T08:57:49;99882.44;;;30.03;83.38
72721;BME280;60835;50.974;10.322;2022-07-12T09:00:16;99858.81;;;27.35;92.21
72721;BME280;60835;50.974;10.322;2022-07-12T09:02:48;99867.28;;;29.67;85.79
72721;BME280;60835;50.974;10.322;2022-07-12T09:05:22;99867.78;;;29.64;82.25
72721;BME280;60835;50.974;10.322;2022-07-12T09:07:49;99865.91;;;31.09;74.81
72721;BME280;60835;50.974;10.322;2022-07-12T09:10:17;99876.78;;;31.26;74.77
72721;BME280;60835;50.974;10.322;2022-07-12T09:12:44;99833.66;;;31.33;61.44
72721;BME280;60835;50.974;10.322;2022-07-12T09:15:20;99859.88;;;28.76;75.30
72721;BME280;60835;50.974;10.322;2022-07-12T09:17:59;99860.31;;;29.20;82.78
72721;BME280;60835;50.974;10.322;2022-07-12T09:20:29;99863.44;;;28.65;84.34
72721;BME280;60835;50.974;10.322;2022-07-12T09:22:58;99871.69;;;29.17;75.82
72721;BME280;60835;50.974;10.322;2022-07-12T09:25:26;99876.31;;;30.41;73.69
72721;BME280;60835;50.974;10.322;2022-07-12T09:27:54;99863.91;;;29.88;73.63
72721;BME280;60835;50.974;10.322;2022-07-12T09:30:23;99854.13;;;28.20;83.39
72721;BME280;60835;50.974;10.322;2022-07-12T09:32:58;99866.81;;;28.37;72.09
72721;BME280;60835;50.974;10.322;2022-07-12T09:41:18;99869.16;;;31.71;59.41
72721;BME280;60835;50.974;10.322;2022-07-12T09:43:45;99874.25;;;32.11;55.67
72721;BME280;60835;50.974;10.322;2022-07-12T09:46:13;99834.47;;;30.24;57.77
72721;BME280;60835;50.974;10.322;2022-07-12T09:48:41;99866.72;;;31.10;62.90
72721;BME280;60835;50.974;10.322;2022-07-12T09:51:14;99865.16;;;32.37;55.28
72721;BME280;60835;50.974;10.322;2022-07-12T09:53:45;99860.31;;;32.86;55.72
72721;BME280;60835;50.974;10.322;2022-07-12T09:56:14;99865.06;;;32.96;53.03
72721;BME280;60835;50.974;10.322;2022-07-12T09:58:55;99867.09;;;32.74;50.77
72721;BME280;60835;50.974;10.322;2022-07-12T10:01:23;99866.31;;;30.01;59.12
72721;BME280;60835;50.974;10.322;2022-07-12T10:03:52;99871.75;;;30.63;64.80
72721;BME280;60835;50.974;10.322;2022-07-12T10:08:48;99880.97;;;31.12;57.96
72721;BME280;60835;50.974;10.322;2022-07-12T10:11:15;99899.09;;;29.62;56.57
72721;BME280;60835;50.974;10.322;2022-07-12T10:14:03;99892.50;;;31.79;57.55
72721;BME280;60835;50.974;10.322;2022-07-12T10:16:33;99895.63;;;31.44;51.54
72721;BME280;60835;50.974;10.322;2022-07-12T10:19:32;99899.88;;;30.63;54.85
72721;BME280;60835;50.974;10.322;2022-07-12T10:22:02;99891.78;;;31.23;56.06
72721;BME280;60835;50.974;10.322;2022-07-12T10:27:00;99880.13;;;31.98;57.13
72721;BME280;60835;50.974;10.322;2022-07-12T10:29:26;99835.06;;;31.14;57.89
72721;BME280;60835;50.974;10.322;2022-07-12T10:31:53;99881.56;;;31.79;53.10
72721;BME280;60835;50.974;10.322;2022-07-12T10:34:24;99873.31;;;31.52;54.01
72721;BME280;60835;50.974;10.322;2022-07-12T10:39:41;99881.25;;;29.42;64.56
72721;BME280;60835;50.974;10.322;2022-07-12T10:44:42;99858.56;;;29.53;62.35
72721;BME280;60835;50.974;10.322;2022-07-12T10:47:11;99878.03;;;29.74;55.60
72721;BME280;60835;50.974;10.322;2022-07-12T10:49:46;99872.00;;;31.16;58.22
72721;BME280;60835;50.974;10.322;2022-07-12T10:52:17;99865.50;;;32.78;51.26
72721;BME280;60835;50.974;10.322;2022-07-12T10:57:40;99853.44;;;31.62;50.84
72721;BME280;60835;50.974;10.322;2022-07-12T11:00:11;99866.03;;;32.11;49.74
72721;BME280;60835;50.974;10.322;2022-07-12T11:02:37;99863.44;;;31.51;53.08
72721;BME280;60835;50.974;10.322;2022-07-12T11:05:04;99860.53;;;31.58;54.04
72721;BME280;60835;50.974;10.322;2022-07-12T11:07:31;99845.63;;;30.89;57.76
72721;BME280;60835;50.974;10.322;2022-07-12T11:09:58;99842.50;;;31.62;53.81
72721;BME280;60835;50.974;10.322;2022-07-12T11:12:31;99813.13;;;31.30;56.06
72721;BME280;60835;50.974;10.322;2022-07-12T11:14:59;99836.88;;;32.59;51.00
72721;BME280;60835;50.974;10.322;2022-07-12T11:17:27;99837.84;;;31.89;54.54
72721;BME280;60835;50.974;10.322;2022-07-12T11:20:10;99831.97;;;31.75;51.54
72721;BME280;60835;50.974;10.322;2022-07-12T11:22:39;99834.16;;;32.00;49.32
72721;BME280;60835;50.974;10.322;2022-07-12T11:25:11;99821.94;;;31.86;48.68
72721;BME280;60835;50.974;10.322;2022-07-12T11:27:38;99812.34;;;32.47;51.02
72721;BME280;60835;50.974;10.322;2022-07-12T11:30:06;99824.44;;;32.14;53.16
72721;BME280;60835;50.974;10.322;2022-07-12T11:32:37;99812.44;;;32.20;45.22
72721;BME280;60835;50.974;10.322;2022-07-12T11:35:25;99825.19;;;32.78;43.15
72721;BME280;60835;50.974;10.322;2022-07-12T11:37:56;99822.09;;;32.65;44.59
72721;BME280;60835;50.974;10.322;2022-07-12T11:40:28;99823.34;;;32.15;46.27
72721;BME280;60835;50.974;10.322;2022-07-12T11:42:57;99801.00;;;31.70;47.45
72721;BME280;60835;50.974;10.322;2022-07-12T11:45:29;99815.25;;;30.47;49.39
72721;BME280;60835;50.974;10.322;2022-07-12T11:48:02;99811.44;;;30.86;49.96
72721;BME280;60835;50.974;10.322;2022-07-12T11:50:30;99809.84;;;31.77;50.06
72721;BME280;60835;50.974;10.322;2022-07-12T11:53:01;99795.47;;;30.95;49.04
72721;BME280;60835;50.974;10.322;2022-07-12T11:55:28;99802.22;;;29.31;55.66
72721;BME280;60835;50.974;10.322;2022-07-12T11:58:05;99780.53;;;32.78;48.36
72721;BME280;60835;50.974;10.322;2022-07-12T12:00:31;99797.19;;;31.71;51.46
72721;BME280;60835;50.974;10.322;2022-07-12T12:02:58;99791.25;;;31.30;51.66
72721;BME280;60835;50.974;10.322;2022-07-12T12:05:25;99798.53;;;31.68;48.60
72721;BME280;60835;50.974;10.322;2022-07-12T12:07:55;99787.59;;;30.60;49.92
72721;BME280;60835;50.974;10.322;2022-07-12T12:10:21;99781.50;;;29.75;51.41
72721;BME280;60835;50.974;10.322;2022-07-12T12:12:50;99779.13;;;32.33;47.71
72721;BME280;60835;50.974;10.322;2022-07-12T12:15:27;99785.34;;;32.61;46.92
72721;BME280;60835;50.974;10.322;2022-07-12T12:18:05;99784.53;;;32.23;45.81
72721;BME280;60835;50.974;10.322;2022-07-12T12:20:34;99784.94;;;32.84;45.03
72721;BME280;60835;50.974;10.322;2022-07-12T12:23:03;99777.31;;;32.12;45.89
72721;BME280;60835;50.974;10.322;2022-07-12T12:25:31;99772.31;;;31.02;48.33
72721;BME280;60835;50.974;10.322;2022-07-12T12:28:03;99732.72;;;31.85;48.44
72721;BME280;60835;50.974;10.322;2022-07-12T12:30:52;99757.94;;;32.56;44.42
72721;BME280;60835;50.974;10.322;2022-07-12T12:33:36;99767.72;;;33.91;41.46
72721;BME280;60835;50.974;10.322;2022-07-12T12:36:36;99763.97;;;32.58;44.42
72721;BME280;60835;50.974;10.322;2022-07-12T12:39:03;99759.88;;;33.12;45.88
72721;BME280;60835;50.974;10.322;2022-07-12T12:41:40;99755.47;;;33.06;42.72
72721;BME280;60835;50.974;10.322;2022-07-12T12:44:11;99759.78;;;33.02;42.60
72721;BME280;60835;50.974;10.322;2022-07-12T12:46:52;99753.91;;;33.35;43.54
72721;BME280;60835;50.974;10.322;2022-07-12T12:49:49;99743.00;;;34.21;42.52
72721;BME280;60835;50.974;10.322;2022-07-12T12:52:24;99753.63;;;33.37;42.27
72721;BME280;60835;50.974;10.322;2022-07-12T12:54:51;99749.56;;;34.00;41.49
72721;BME280;60835;50.974;10.322;2022-07-12T12:57:18;99744.66;;;33.97;39.69
72721;BME280;60835;50.974;10.322;2022-07-12T12:59:45;99747.41;;;34.02;40.33
72721;BME280;60835;50.974;10.322;2022-07-12T13:02:12;99750.31;;;29.99;45.87
72721;BME280;60835;50.974;10.322;2022-07-12T13:04:39;99750.00;;;32.22;43.97
72721;BME280;60835;50.974;10.322;2022-07-12T13:07:06;99744.31;;;32.76;42.88